sensor_id;sensor_type;location;lat;lon;timestamp;pressure;altitude;pressure_sealevel;temperature;humidity
21742;BME280;11033;47.490;11.116;2023-03-31T00:01:32;92821.78;;;6.40;98.49
21742;BME280;11033;47.490;11.116;2023-03-31T00:03:58;92812.78;;;6.42;96.53
21742;BME280;11033;47.490;11.116;2023-03-31T00:06:31;92813.47;;;6.36;96.61
21742;BME280;11033;47.490;11.116;2023-03-31T00:09:05;92812.94;;;6.41;97.27
21742;BME280;11033;47.490;11.116;2023-03-31T00:11:31;92813.25;;;6.46;96.94
21742;BME280;11033;47.490;11.116;2023-03-31T00:13:56;92808.34;;;6.43;95.88
21742;BME280;11033;47.490;11.116;2023-03-31T00:16:22;92784.53;;;6.38;97.77
21742;BME280;11033;47.490;11.116;2023-03-31T00:18:47;92779.63;;;6.34;97.10
21742;BME280;11033;47.490;11.116;2023-03-31T00:21:17;92779.63;;;6.34;96.86
21742;BME280;11033;47.490;11.116;2023-03-31T00:24:03;92773.13;;;6.30;96.54
21742;BME280;11033;47.490;11.116;2023-03-31T00:26:29;92764.63;;;6.28;96.20
21742;BME280;11033;47.490;11.116;2023-03-31T00:28:55;92757.44;;;6.30;96.38
21742;BME280;11033;47.490;11.116;2023-03-31T00:31:21;92758.13;;;6.24;97.08
21742;BME280;11033;47.490;11.116;2023-03-31T00:33:47;92768.25;;;6.27;97.70
21742;BME280;11033;47.490;11.116;2023-03-31T00:36:12;92770.22;;;6.25;97.35
21742;BME280;11033;47.490;11.116;2023-03-31T00:38:46;92774.81;;;6.23;96.24
21742;BME280;11033;47.490;11.116;2023-03-31T00:41:12;92766.50;;;6.20;97.03
21742;BME280;11033;47.490;11.116;2023-03-31T00:43:38;92757.44;;;6.30;95.51
21742;BME280;11033;47.490;11.116;2023-03-31T00:46:14;92749.34;;;6.17;96.57
21742;BME280;11033;47.490;11.116;2023-03-31T00:48:54;92764.41;;;6.15;96.30
21742;BME280;11033;47.490;11.116;2023-03-31T00:51:30;92756.91;;;6.12;96.24
21742;BME280;11033;47.490;11.116;2023-03-31T00:54:00;92744.28;;;6.16;95.91
21742;BME280;11033;47.490;11.116;2023-03-31T00:56:35;92743.00;;;6.12;95.26
21742;BME280;11033;47.490;11.116;2023-03-31T00:59:06;92743.81;;;6.12;95.68
21742;BME280;11033;47.490;11.116;2023-03-31T01:01:33;92730.81;;;6.04;95.22
21742;BME280;11033;47.490;11.116;2023-03-31T01:04:01;92737.38;;;6.00;95.92
21742;BME280;11033;47.490;11.116;2023-03-31T01:06:27;92729.88;;;5.97;96.72
21742;BME280;11033;47.490;11.116;2023-03-31T01:08:55;92724.81;;;5.95;97.64
21742;BME280;11033;47.490;11.116;2023-03-31T01:11:23;92722.38;;;5.94;97.19
21742;BME280;11033;47.490;11.116;2023-03-31T01:13:52;92722.72;;;5.83;97.41
21742;BME280;11033;47.490;11.116;2023-03-31T01:16:20;92712.25;;;5.83;98.73
21742;BME280;11033;47.490;11.116;2023-03-31T01:18:45;92705.41;;;5.90;97.95
21742;BME280;11033;47.490;11.116;2023-03-31T01:24:30;92684.66;;;5.88;95.50
21742;BME280;11033;47.490;11.116;2023-03-31T01:46:36;92667.16;;;5.89;97.49
21742;BME280;11033;47.490;11.116;2023-03-31T01:52:24;92663.88;;;5.95;96.21
21742;BME280;11033;47.490;11.116;2023-03-31T01:55:05;92668.16;;;5.88;96.26
21742;BME280;11033;47.490;11.116;2023-03-31T01:57:36;92664.56;;;5.81;96.68
21742;BME280;11033;47.490;11.116;2023-03-31T02:02:56;92652.78;;;5.85;97.55
21742;BME280;11033;47.490;11.116;2023-03-31T02:05:29;92651.16;;;5.84;97.83
21742;BME280;11033;47.490;11.116;2023-03-31T02:08:07;92641.06;;;5.81;97.32
21742;BME280;11033;47.490;11.116;2023-03-31T02:10:34;92642.03;;;5.80;97.80
21742;BME280;11033;47.490;11.116;2023-03-31T02:13:01;92638.78;;;5.86;99.48
21742;BME280;11033;47.490;11.116;2023-03-31T02:15:30;92642.84;;;5.88;98.19
21742;BME280;11033;47.490;11.116;2023-03-31T02:18:00;92637.13;;;5.85;97.75
21742;BME280;11033;47.490;11.116;2023-03-31T02:20:28;92631.88;;;5.85;97.73
21742;BME280;11033;47.490;11.116;2023-03-31T02:22:55;92638.78;;;5.86;98.78
21742;BME280;11033;47.490;11.116;2023-03-31T02:25:25;92622.75;;;5.89;98.19
21742;BME280;11033;47.490;11.116;2023-03-31T02:27:57;92626.34;;;5.88;97.93
21742;BME280;11033;47.490;11.116;2023-03-31T02:30:31;92619.97;;;5.90;97.45
21742;BME280;11033;47.490;11.116;2023-03-31T02:33:00;92616.22;;;5.93;99.01
21742;BME280;11033;47.490;11.116;2023-03-31T02:35:28;92619.81;;;5.92;98.74
21742;BME280;11033;47.490;11.116;2023-03-31T02:37:54;92624.34;;;5.98;98.27
21742;BME280;11033;47.490;11.116;2023-03-31T02:40:23;92612.53;;;6.02;98.11
21742;BME280;11033;47.490;11.116;2023-03-31T02:42:51;92622.06;;;5.95;97.41
21742;BME280;11033;47.490;11.116;2023-03-31T02:48:01;92612.53;;;6.02;98.66
21742;BME280;11033;47.490;11.116;2023-03-31T02:50:30;92610.22;;;6.07;97.40
21742;BME280;11033;47.490;11.116;2023-03-31T02:53:02;92596.16;;;6.08;96.87
21742;BME280;11033;47.490;11.116;2023-03-31T02:55:50;92605.16;;;6.06;97.88
21742;BME280;11033;47.490;11.116;2023-03-31T02:58:30;92605.78;;;6.08;97.28
21742;BME280;11033;47.490;11.116;2023-03-31T03:01:36;92587.66;;;6.06;96.89
21742;BME280;11033;47.490;11.116;2023-03-31T03:04:31;92595.16;;;6.09;99.03
21742;BME280;11033;47.490;11.116;2023-03-31T03:07:15;92583.88;;;6.09;98.14
21742;BME280;11033;47.490;11.116;2023-03-31T03:15:29;92564.00;;;6.22;97.60
21742;BME280;11033;47.490;11.116;2023-03-31T03:17:55;92555.78;;;6.25;97.65
21742;BME280;11033;47.490;11.116;2023-03-31T03:20:21;92561.72;;;6.19;97.74
21742;BME280;11033;47.490;11.116;2023-03-31T03:22:46;92553.72;;;6.21;97.39
21742;BME280;11033;47.490;11.116;2023-03-31T03:25:13;92540.09;;;6.25;97.18
21742;BME280;11033;47.490;11.116;2023-03-31T03:27:39;92536.84;;;6.23;96.00
21742;BME280;11033;47.490;11.116;2023-03-31T03:30:06;92533.88;;;6.26;94.52
21742;BME280;11033;47.490;11.116;2023-03-31T03:32:32;92532.06;;;6.27;94.95
21742;BME280;11033;47.490;11.116;2023-03-31T03:34:59;92523.22;;;6.28;95.22
21742;BME280;11033;47.490;11.116;2023-03-31T03:37:24;92517.00;;;6.29;94.40
21742;BME280;11033;47.490;11.116;2023-03-31T03:39:50;92513.22;;;6.31;95.78
21742;BME280;11033;47.490;11.116;2023-03-31T03:42:15;92515.66;;;6.33;95.77
21742;BME280;11033;47.490;11.116;2023-03-31T03:44:41;92513.84;;;6.33;95.54
21742;BME280;11033;47.490;11.116;2023-03-31T03:47:06;92529.19;;;6.36;96.22
21742;BME280;11033;47.490;11.116;2023-03-31T03:49:31;92536.66;;;6.40;95.06
21742;BME280;11033;47.490;11.116;2023-03-31T03:51:56;92533.44;;;6.38;95.44
21742;BME280;11033;47.490;11.116;2023-03-31T03:54:22;92540.63;;;6.35;94.25
21742;BME280;11033;47.490;11.116;2023-03-31T03:56:47;92531.44;;;6.40;94.21
21742;BME280;11033;47.490;11.116;2023-03-31T03:59:12;92522.16;;;6.37;95.52
21742;BME280;11033;47.490;11.116;2023-03-31T04:01:38;92512.50;;;6.38;95.53
21742;BME280;11033;47.490;11.116;2023-03-31T04:04:03;92505.66;;;6.36;97.20
21742;BME280;11033;47.490;11.116;2023-03-31T04:06:29;92493.56;;;6.35;97.26
21742;BME280;11033;47.490;11.116;2023-03-31T04:08:54;92485.09;;;6.33;96.78
21742;BME280;11033;47.490;11.116;2023-03-31T04:11:19;92490.31;;;6.33;96.56
21742;BME280;11033;47.490;11.116;2023-03-31T04:13:45;92493.56;;;6.35;97.17
21742;BME280;11033;47.490;11.116;2023-03-31T04:16:11;92504.38;;;6.32;97.89
21742;BME280;11033;47.490;11.116;2023-03-31T04:18:37;92497.16;;;6.34;97.08
21742;BME280;11033;47.490;11.116;2023-03-31T04:21:10;92484.38;;;6.40;96.09
21742;BME280;11033;47.490;11.116;2023-03-31T04:23:51;92484.72;;;6.36;95.71
21742;BME280;11033;47.490;11.116;2023-03-31T04:26:24;92488.34;;;6.35;96.24
21742;BME280;11033;47.490;11.116;2023-03-31T04:28:56;92488.69;;;6.32;96.50
21742;BME280;11033;47.490;11.116;2023-03-31T04:31:25;92468.78;;;6.31;95.96
21742;BME280;11033;47.490;11.116;2023-03-31T04:33:54;92461.91;;;6.30;96.28
21742;BME280;11033;47.490;11.116;2023-03-31T04:36:20;92462.00;;;6.37;95.34
21742;BME280;11033;47.490;11.116;2023-03-31T04:38:47;92445.59;;;6.28;96.60
21742;BME280;11033;47.490;11.116;2023-03-31T04:41:21;92428.47;;;6.26;96.60
21742;BME280;11033;47.490;11.116;2023-03-31T04:43:46;92408.19;;;6.28;96.61
21742;BME280;11033;47.490;11.116;2023-03-31T04:46:12;92391.22;;;6.24;96.63
21742;BME280;11033;47.490;11.116;2023-03-31T04:48:37;92383.19;;;6.25;96.70
21742;BME280;11033;47.490;11.116;2023-03-31T04:51:03;92402.50;;;6.24;95.23
21742;BME280;11033;47.490;11.116;2023-03-31T04:53:28;92385.66;;;6.12;96.71
21742;BME280;11033;47.490;11.116;2023-03-31T04:55:53;92382.13;;;6.20;95.37
21742;BME280;11033;47.490;11.116;2023-03-31T04:58:19;92383.94;;;6.19;95.34
21742;BME280;11033;47.490;11.116;2023-03-31T05:00:44;92370.34;;;6.09;95.36
21742;BME280;11033;47.490;11.116;2023-03-31T05:03:09;92358.00;;;6.03;96.77
21742;BME280;11033;47.490;11.116;2023-03-31T05:05:35;92360.25;;;6.06;96.24
21742;BME280;11033;47.490;11.116;2023-03-31T05:08:02;92357.72;;;5.98;96.59
21742;BME280;11033;47.490;11.116;2023-03-31T05:10:28;92339.44;;;5.98;96.88
21742;BME280;11033;47.490;11.116;2023-03-31T05:12:53;92328.25;;;6.04;95.06
21742;BME280;11033;47.490;11.116;2023-03-31T05:15:19;92331.84;;;6.03;95.82
21742;BME280;11033;47.490;11.116;2023-03-31T05:17:44;92331.22;;;6.01;96.60
21742;BME280;11033;47.490;11.116;2023-03-31T05:20:11;92324.16;;;6.16;94.97
21742;BME280;11033;47.490;11.116;2023-03-31T05:22:38;92333.56;;;6.11;94.80
21742;BME280;11033;47.490;11.116;2023-03-31T05:25:06;92322.28;;;6.10;94.41
21742;BME280;11033;47.490;11.116;2023-03-31T05:27:32;92310.84;;;6.11;94.66
21742;BME280;11033;47.490;11.116;2023-03-31T05:29:58;92329.13;;;6.11;95.19
21742;BME280;11033;47.490;11.116;2023-03-31T05:32:25;92308.59;;;6.08;96.01
21742;BME280;11033;47.490;11.116;2023-03-31T05:34:51;92292.97;;;6.15;95.13
21742;BME280;11033;47.490;11.116;2023-03-31T05:37:19;92301.16;;;6.26;95.01
21742;BME280;11033;47.490;11.116;2023-03-31T05:39:44;92312.47;;;6.12;95.18
21742;BME280;11033;47.490;11.116;2023-03-31T05:42:10;92296.59;;;6.14;95.13
21742;BME280;11033;47.490;11.116;2023-03-31T05:44:36;92274.88;;;6.13;95.24
21742;BME280;11033;47.490;11.116;2023-03-31T05:47:01;92270.50;;;6.20;95.17
21742;BME280;11033;47.490;11.116;2023-03-31T05:49:26;92257.31;;;6.28;95.35
21742;BME280;11033;47.490;11.116;2023-03-31T05:51:52;92263.53;;;6.27;95.16
21742;BME280;11033;47.490;11.116;2023-03-31T05:54:17;92258.25;;;6.21;95.33
21742;BME280;11033;47.490;11.116;2023-03-31T05:56:43;92254.81;;;6.20;95.42
21742;BME280;11033;47.490;11.116;2023-03-31T05:59:08;92253.72;;;6.29;95.00
21742;BME280;11033;47.490;11.116;2023-03-31T06:01:33;92258.13;;;6.29;95.15
21742;BME280;11033;47.490;11.116;2023-03-31T06:03:59;92242.50;;;6.35;95.07
21742;BME280;11033;47.490;11.116;2023-03-31T06:06:24;92232.03;;;6.35;94.80
21742;BME280;11033;47.490;11.116;2023-03-31T06:08:50;92219.03;;;6.42;95.07
21742;BME280;11033;47.490;11.116;2023-03-31T06:11:20;92206.00;;;6.49;94.33
21742;BME280;11033;47.490;11.116;2023-03-31T06:13:46;92191.69;;;6.45;94.21
21742;BME280;11033;47.490;11.116;2023-03-31T06:16:13;92177.13;;;6.57;94.03
21742;BME280;11033;47.490;11.116;2023-03-31T06:18:39;92191.63;;;6.59;94.25
21742;BME280;11033;47.490;11.116;2023-03-31T06:21:05;92186.81;;;6.63;93.85
21742;BME280;11033;47.490;11.116;2023-03-31T06:23:32;92180.81;;;6.69;94.23
21742;BME280;11033;47.490;11.116;2023-03-31T06:26:05;92181.25;;;6.73;93.26
21742;BME280;11033;47.490;11.116;2023-03-31T06:28:35;92174.22;;;6.73;93.78
21742;BME280;11033;47.490;11.116;2023-03-31T06:31:02;92176.06;;;6.79;92.97
21742;BME280;11033;47.490;11.116;2023-03-31T06:33:28;92195.63;;;6.83;92.45
21742;BME280;11033;47.490;11.116;2023-03-31T06:35:55;92203.84;;;6.80;92.95
21742;BME280;11033;47.490;11.116;2023-03-31T06:38:20;92209.75;;;6.89;92.77
21742;BME280;11033;47.490;11.116;2023-03-31T06:40:46;92216.78;;;6.88;92.51
21742;BME280;11033;47.490;11.116;2023-03-31T06:43:11;92196.63;;;6.82;94.42
21742;BME280;11033;47.490;11.116;2023-03-31T06:45:36;92183.16;;;6.85;93.99
21742;BME280;11033;47.490;11.116;2023-03-31T06:48:02;92179.97;;;6.90;94.19
21742;BME280;11033;47.490;11.116;2023-03-31T06:50:27;92174.09;;;6.88;95.06
21742;BME280;11033;47.490;11.116;2023-03-31T06:52:52;92172.50;;;6.87;95.57
21742;BME280;11033;47.490;11.116;2023-03-31T06:55:19;92174.53;;;6.91;96.04
21742;BME280;11033;47.490;11.116;2023-03-31T06:57:44;92172.53;;;6.93;96.45
21742;BME280;11033;47.490;11.116;2023-03-31T07:00:10;92152.78;;;6.91;96.66
21742;BME280;11033;47.490;11.116;2023-03-31T07:02:36;92162.81;;;6.87;97.51
21742;BME280;11033;47.490;11.116;2023-03-31T07:05:02;92155.66;;;7.03;97.96
21742;BME280;11033;47.490;11.116;2023-03-31T07:07:30;92151.84;;;7.05;97.34
21742;BME280;11033;47.490;11.116;2023-03-31T07:09:56;92153.75;;;7.18;96.61
21742;BME280;11033;47.490;11.116;2023-03-31T07:12:21;92143.72;;;7.28;96.75
21742;BME280;11033;47.490;11.116;2023-03-31T07:14:46;92123.78;;;7.27;96.27
21742;BME280;11033;47.490;11.116;2023-03-31T07:17:12;92114.94;;;7.35;96.75
21742;BME280;11033;47.490;11.116;2023-03-31T07:19:37;92124.44;;;7.42;95.62
21742;BME280;11033;47.490;11.116;2023-03-31T07:22:06;92118.63;;;7.53;96.75
21742;BME280;11033;47.490;11.116;2023-03-31T07:24:32;92131.13;;;7.58;95.15
21742;BME280;11033;47.490;11.116;2023-03-31T07:26:57;92110.38;;;7.63;95.25
21742;BME280;11033;47.490;11.116;2023-03-31T07:29:22;92114.44;;;7.72;94.86
21742;BME280;11033;47.490;11.116;2023-03-31T07:31:48;92105.38;;;7.75;95.06
21742;BME280;11033;47.490;11.116;2023-03-31T07:34:13;92110.06;;;7.86;95.20
21742;BME280;11033;47.490;11.116;2023-03-31T07:36:38;92108.03;;;7.88;95.79
21742;BME280;11033;47.490;11.116;2023-03-31T07:39:05;92105.22;;;7.89;97.05
21742;BME280;11033;47.490;11.116;2023-03-31T07:41:30;92095.75;;;7.95;97.53
21742;BME280;11033;47.490;11.116;2023-03-31T07:43:56;92099.59;;;7.99;98.19
21742;BME280;11033;47.490;11.116;2023-03-31T07:46:26;92099.19;;;8.02;97.20
21742;BME280;11033;47.490;11.116;2023-03-31T07:48:52;92079.03;;;8.16;96.64
21742;BME280;11033;47.490;11.116;2023-03-31T07:51:20;92089.91;;;8.19;93.82
21742;BME280;11033;47.490;11.116;2023-03-31T07:53:46;92099.41;;;8.20;92.73
21742;BME280;11033;47.490;11.116;2023-03-31T07:56:14;92107.06;;;8.28;92.95
21742;BME280;11033;47.490;11.116;2023-03-31T07:58:41;92110.13;;;8.52;89.06
21742;BME280;11033;47.490;11.116;2023-03-31T08:01:07;92096.00;;;8.46;91.11
21742;BME280;11033;47.490;11.116;2023-03-31T08:03:32;92086.94;;;8.49;92.42
21742;BME280;11033;47.490;11.116;2023-03-31T08:05:58;92102.88;;;8.54;93.05
21742;BME280;11033;47.490;11.116;2023-03-31T08:08:24;92096.41;;;8.63;93.33
21742;BME280;11033;47.490;11.116;2023-03-31T08:10:50;92102.03;;;8.67;92.80
21742;BME280;11033;47.490;11.116;2023-03-31T08:13:16;92116.97;;;8.73;91.94
21742;BME280;11033;47.490;11.116;2023-03-31T08:15:41;92141.19;;;8.81;89.92
21742;BME280;11033;47.490;11.116;2023-03-31T08:18:07;92148.47;;;8.86;88.68
21742;BME280;11033;47.490;11.116;2023-03-31T08:20:32;92132.69;;;8.93;90.68
21742;BME280;11033;47.490;11.116;2023-03-31T08:22:57;92130.84;;;9.00;92.10
21742;BME280;11033;47.490;11.116;2023-03-31T08:25:23;92116.09;;;9.05;91.88
21742;BME280;11033;47.490;11.116;2023-03-31T08:27:49;92091.25;;;9.14;92.70
21742;BME280;11033;47.490;11.116;2023-03-31T08:30:18;92087.75;;;9.27;93.59
21742;BME280;11033;47.490;11.116;2023-03-31T08:32:44;92079.22;;;9.38;93.76
21742;BME280;11033;47.490;11.116;2023-03-31T08:35:09;92067.66;;;9.46;94.21
21742;BME280;11033;47.490;11.116;2023-03-31T08:37:36;92071.88;;;9.53;91.82
21742;BME280;11033;47.490;11.116;2023-03-31T08:40:03;92066.91;;;9.77;90.59
21742;BME280;11033;47.490;11.116;2023-03-31T08:42:41;92078.94;;;9.91;89.78
21742;BME280;11033;47.490;11.116;2023-03-31T08:47:50;92093.31;;;10.27;87.89
21742;BME280;11033;47.490;11.116;2023-03-31T08:50:21;92112.63;;;10.45;87.28
21742;BME280;11033;47.490;11.116;2023-03-31T08:52:53;92111.81;;;10.45;86.25
21742;BME280;11033;47.490;11.116;2023-03-31T08:55:33;92115.69;;;10.42;84.91
21742;BME280;11033;47.490;11.116;2023-03-31T08:58:05;92120.31;;;10.47;83.68
21742;BME280;11033;47.490;11.116;2023-03-31T09:00:39;92128.38;;;10.52;84.18
21742;BME280;11033;47.490;11.116;2023-03-31T09:03:20;92121.16;;;10.41;81.18
21742;BME280;11033;47.490;11.116;2023-03-31T09:05:57;92130.84;;;10.47;78.15
21742;BME280;11033;47.490;11.116;2023-03-31T09:08:30;92137.72;;;10.48;77.57
21742;BME280;11033;47.490;11.116;2023-03-31T09:11:13;92163.22;;;10.47;76.13
21742;BME280;11033;47.490;11.116;2023-03-31T09:14:06;92175.00;;;10.38;76.94
21742;BME280;11033;47.490;11.116;2023-03-31T09:22:04;92190.84;;;9.87;84.05
21742;BME280;11033;47.490;11.116;2023-03-31T09:24:58;92202.34;;;9.99;85.22
21742;BME280;11033;47.490;11.116;2023-03-31T09:27:26;92240.03;;;9.87;86.36
21742;BME280;11033;47.490;11.116;2023-03-31T09:30:26;92228.09;;;9.84;85.26
21742;BME280;11033;47.490;11.116;2023-03-31T09:35:57;92211.28;;;9.92;83.90
21742;BME280;11033;47.490;11.116;2023-03-31T09:38:23;92194.28;;;9.94;85.89
21742;BME280;11033;47.490;11.116;2023-03-31T09:40:48;92201.09;;;10.02;87.01
21742;BME280;11033;47.490;11.116;2023-03-31T09:43:28;92212.00;;;10.12;88.34
21742;BME280;11033;47.490;11.116;2023-03-31T09:45:55;92200.44;;;10.13;88.21
21742;BME280;11033;47.490;11.116;2023-03-31T09:48:24;92201.44;;;10.18;88.62
21742;BME280;11033;47.490;11.116;2023-03-31T09:50:58;92199.16;;;9.84;91.63
21742;BME280;11033;47.490;11.116;2023-03-31T09:53:31;92201.13;;;9.95;90.99
21742;BME280;11033;47.490;11.116;2023-03-31T09:56:03;92201.78;;;9.91;88.77
21742;BME280;11033;47.490;11.116;2023-03-31T09:58:30;92211.66;;;9.95;87.95
21742;BME280;11033;47.490;11.116;2023-03-31T10:01:02;92220.16;;;9.97;87.33
21742;BME280;11033;47.490;11.116;2023-03-31T10:03:28;92219.97;;;9.92;87.26
21742;BME280;11033;47.490;11.116;2023-03-31T10:05:56;92192.06;;;9.91;87.46
21742;BME280;11033;47.490;11.116;2023-03-31T10:08:38;92146.19;;;9.74;88.95
21742;BME280;11033;47.490;11.116;2023-03-31T10:13:37;92141.72;;;9.74;91.34
21742;BME280;11033;47.490;11.116;2023-03-31T10:16:06;92152.00;;;9.89;90.46
21742;BME280;11033;47.490;11.116;2023-03-31T10:18:40;92151.03;;;9.83;90.89
21742;BME280;11033;47.490;11.116;2023-03-31T10:21:14;92149.41;;;9.82;93.50
21742;BME280;11033;47.490;11.116;2023-03-31T10:23:45;92142.91;;;9.85;93.01
21742;BME280;11033;47.490;11.116;2023-03-31T10:26:15;92150.81;;;9.85;92.45
21742;BME280;11033;47.490;11.116;2023-03-31T10:28:41;92134.19;;;9.91;92.82
21742;BME280;11033;47.490;11.116;2023-03-31T10:31:07;92128.13;;;9.91;94.62
21742;BME280;11033;47.490;11.116;2023-03-31T10:33:40;92129.69;;;9.98;95.02
21742;BME280;11033;47.490;11.116;2023-03-31T10:36:20;92134.75;;;10.00;92.32
21742;BME280;11033;47.490;11.116;2023-03-31T10:38:47;92133.97;;;9.93;93.01
21742;BME280;11033;47.490;11.116;2023-03-31T10:41:18;92115.00;;;9.84;93.83
21742;BME280;11033;47.490;11.116;2023-03-31T10:43:53;92106.09;;;9.85;96.00
21742;BME280;11033;47.490;11.116;2023-03-31T10:46:19;92108.06;;;9.96;94.74
21742;BME280;11033;47.490;11.116;2023-03-31T10:48:46;92112.09;;;9.99;93.08
21742;BME280;11033;47.490;11.116;2023-03-31T10:51:20;92113.75;;;9.93;93.09
21742;BME280;11033;47.490;11.116;2023-03-31T10:53:47;92099.19;;;9.91;94.03
21742;BME280;11033;47.490;11.116;2023-03-31T11:07:26;92115.78;;;9.91;92.81
21742;BME280;11033;47.490;11.116;2023-03-31T11:15:12;92108.72;;;9.85;94.31
21742;BME280;11033;47.490;11.116;2023-03-31T11:23:46;92105.28;;;9.84;93.98
21742;BME280;11033;47.490;11.116;2023-03-31T11:29:21;92109.41;;;9.67;92.55
21742;BME280;11033;47.490;11.116;2023-03-31T11:37:36;92080.28;;;9.69;95.10
21742;BME280;11033;47.490;11.116;2023-03-31T11:46:12;92091.06;;;9.54;94.39
21742;BME280;11033;47.490;11.116;2023-03-31T11:48:40;92097.28;;;9.66;92.56
21742;BME280;11033;47.490;11.116;2023-03-31T11:51:16;92109.03;;;9.64;92.31
21742;BME280;11033;47.490;11.116;2023-03-31T11:53:45;92101.16;;;9.57;92.75
21742;BME280;11033;47.490;11.116;2023-03-31T11:56:13;92135.13;;;9.59;91.88
21742;BME280;11033;47.490;11.116;2023-03-31T11:58:52;92177.31;;;9.06;96.30
21742;BME280;11033;47.490;11.116;2023-03-31T12:01:36;92118.94;;;9.10;90.25
21742;BME280;11033;47.490;11.116;2023-03-31T12:06:48;92076.06;;;9.10;88.98
21742;BME280;11033;47.490;11.116;2023-03-31T12:09:37;92078.09;;;9.21;90.20
21742;BME280;11033;47.490;11.116;2023-03-31T12:12:21;92057.91;;;9.15;89.67
21742;BME280;11033;47.490;11.116;2023-03-31T12:15:09;92040.13;;;9.04;91.32
21742;BME280;11033;47.490;11.116;2023-03-31T12:17:37;92025.97;;;9.05;90.55
21742;BME280;11033;47.490;11.116;2023-03-31T12:20:13;91994.47;;;9.05;89.62
21742;BME280;11033;47.490;11.116;2023-03-31T12:22:47;91989.84;;;9.00;89.12
21742;BME280;11033;47.490;11.116;2023-03-31T12:25:13;91986.47;;;8.86;89.31
21742;BME280;11033;47.490;11.116;2023-03-31T12:27:43;91975.78;;;8.81;92.29
21742;BME280;11033;47.490;11.116;2023-03-31T12:30:17;91977.22;;;8.77;91.31
21742;BME280;11033;47.490;11.116;2023-03-31T12:32:53;91965.09;;;8.76;92.41
21742;BME280;11033;47.490;11.116;2023-03-31T12:35:26;91970.13;;;8.84;93.62
21742;BME280;11033;47.490;11.116;2023-03-31T12:45:46;91953.06;;;8.62;93.01
21742;BME280;11033;47.490;11.116;2023-03-31T12:56:20;91971.81;;;8.66;95.44
21742;BME280;11033;47.490;11.116;2023-03-31T12:58:46;91961.28;;;8.72;93.79
21742;BME280;11033;47.490;11.116;2023-03-31T13:11:40;91929.88;;;8.39;96.71
21742;BME280;11033;47.490;11.116;2023-03-31T13:14:36;91946.03;;;8.49;96.74
21742;BME280;11033;47.490;11.116;2023-03-31T13:17:24;91961.19;;;8.34;96.33
21742;BME280;11033;47.490;11.116;2023-03-31T13:19:52;91954.09;;;8.48;95.33
21742;BME280;11033;47.490;11.116;2023-03-31T13:25:48;91932.88;;;8.56;95.72
21742;BME280;11033;47.490;11.116;2023-03-31T13:28:23;91934.13;;;8.47;98.08
21742;BME280;11033;47.490;11.116;2023-03-31T13:30:54;91932.06;;;8.62;96.63
21742;BME280;11033;47.490;11.116;2023-03-31T13:33:46;91926.81;;;8.62;96.06
21742;BME280;11033;47.490;11.116;2023-03-31T13:42:07;91904.91;;;8.81;96.33
21742;BME280;11033;47.490;11.116;2023-03-31T13:47:36;91906.06;;;8.92;96.89
21742;BME280;11033;47.490;11.116;2023-03-31T13:50:15;91896.31;;;8.99;94.14
21742;BME280;11033;47.490;11.116;2023-03-31T13:55:32;91897.91;;;9.00;94.86
21742;BME280;11033;47.490;11.116;2023-03-31T14:04:05;91898.50;;;9.02;95.29
21742;BME280;11033;47.490;11.116;2023-03-31T14:06:38;91909.97;;;9.14;96.62
21742;BME280;11033;47.490;11.116;2023-03-31T14:09:35;91901.94;;;9.03;95.32
21742;BME280;11033;47.490;11.116;2023-03-31T14:12:18;91898.06;;;9.12;94.22
21742;BME280;11033;47.490;11.116;2023-03-31T14:14:44;91885.34;;;9.09;92.54
21742;BME280;11033;47.490;11.116;2023-03-31T14:17:10;91871.97;;;9.17;94.38
21742;BME280;11033;47.490;11.116;2023-03-31T14:19:55;91866.88;;;9.22;93.87
21742;BME280;11033;47.490;11.116;2023-03-31T14:25:31;91902.97;;;9.33;91.79
21742;BME280;11033;47.490;11.116;2023-03-31T14:28:34;91904.97;;;9.38;92.61
21742;BME280;11033;47.490;11.116;2023-03-31T14:36:14;91933.34;;;9.29;92.17
21742;BME280;11033;47.490;11.116;2023-03-31T14:38:40;91951.47;;;9.37;91.45
21742;BME280;11033;47.490;11.116;2023-03-31T14:41:06;91949.59;;;9.13;89.52
21742;BME280;11033;47.490;11.116;2023-03-31T14:43:48;91948.72;;;9.26;85.32
21742;BME280;11033;47.490;11.116;2023-03-31T14:46:19;91962.03;;;9.31;87.30
21742;BME280;11033;47.490;11.116;2023-03-31T14:48:46;91980.81;;;9.34;87.64
21742;BME280;11033;47.490;11.116;2023-03-31T14:51:23;91970.53;;;9.26;85.79
21742;BME280;11033;47.490;11.116;2023-03-31T14:54:00;92003.75;;;9.14;87.22
21742;BME280;11033;47.490;11.116;2023-03-31T14:56:31;92011.81;;;9.19;86.41
21742;BME280;11033;47.490;11.116;2023-03-31T14:58:59;92009.34;;;9.24;85.82
21742;BME280;11033;47.490;11.116;2023-03-31T15:01:28;92013.22;;;9.21;86.44
21742;BME280;11033;47.490;11.116;2023-03-31T15:04:02;92014.47;;;9.12;88.10
21742;BME280;11033;47.490;11.116;2023-03-31T15:06:30;92014.69;;;9.04;87.01
21742;BME280;11033;47.490;11.116;2023-03-31T15:09:00;91994.66;;;9.48;87.48
21742;BME280;11033;47.490;11.116;2023-03-31T15:11:28;91972.84;;;9.79;88.50
21742;BME280;11033;47.490;11.116;2023-03-31T15:13:54;91957.91;;;9.98;86.38
21742;BME280;11033;47.490;11.116;2023-03-31T15:16:37;91944.19;;;10.39;86.66
21742;BME280;11033;47.490;11.116;2023-03-31T15:19:15;91930.44;;;10.73;86.95
21742;BME280;11033;47.490;11.116;2023-03-31T15:21:42;91921.63;;;10.98;86.77
21742;BME280;11033;47.490;11.116;2023-03-31T15:24:13;91916.94;;;11.18;82.40
21742;BME280;11033;47.490;11.116;2023-03-31T15:26:59;91919.06;;;11.09;84.24
21742;BME280;11033;47.490;11.116;2023-03-31T15:29:48;91915.19;;;11.12;84.25
21742;BME280;11033;47.490;11.116;2023-03-31T15:32:24;91911.03;;;11.34;84.08
21742;BME280;11033;47.490;11.116;2023-03-31T15:34:51;91924.53;;;11.26;83.35
21742;BME280;11033;47.490;11.116;2023-03-31T15:37:24;91917.81;;;11.42;83.16
21742;BME280;11033;47.490;11.116;2023-03-31T15:39:54;91940.72;;;11.41;81.94
21742;BME280;11033;47.490;11.116;2023-03-31T15:42:20;91976.75;;;10.99;82.60